createdAt,value
2022-10-04T00:02:15.167Z,101939.03
2022-10-04T00:04:44.934Z,101937.25
2022-10-04T00:07:11.337Z,101939.00
2022-10-04T00:09:57.553Z,101935.06
2022-10-04T00:12:48.588Z,101936.03
2022-10-04T00:15:31.395Z,101933.13
2022-10-04T00:18:16.665Z,101931.78
2022-10-04T00:20:53.399Z,101931.88
2022-10-04T00:23:23.106Z,101924.22
2022-10-04T00:25:50.074Z,101933.72
2022-10-04T00:28:25.765Z,101929.28
2022-10-04T00:31:09.717Z,101920.59
2022-10-04T00:33:50.646Z,101923.28
2022-10-04T00:36:23.821Z,101915.22
2022-10-04T00:39:05.614Z,101907.56
2022-10-04T00:41:47.186Z,101903.69
2022-10-04T00:44:51.121Z,101905.53
2022-10-04T00:47:32.849Z,101914.44
2022-10-04T00:50:19.531Z,101910.16
2022-10-04T00:52:50.999Z,101909.16
2022-10-04T00:55:26.193Z,101915.34
2022-10-04T00:57:59.398Z,101918.63
2022-10-04T01:00:27.042Z,101923.88
2022-10-04T01:02:59.392Z,101915.47
2022-10-04T01:05:33.708Z,101902.28
2022-10-04T01:08:07.001Z,101898.63
2022-10-04T01:10:48.872Z,101889.97
2022-10-04T01:13:41.816Z,101895.19
2022-10-04T01:16:18.814Z,101888.66
2022-10-04T01:18:45.981Z,101887.81
2022-10-04T01:21:18.400Z,101894.97
2022-10-04T01:24:16.905Z,101877.66
2022-10-04T01:26:45.286Z,101876.47
2022-10-04T01:29:16.199Z,101886.75
2022-10-04T01:31:50.473Z,101881.03
2022-10-04T01:34:22.639Z,101872.47
2022-10-04T01:36:51.429Z,101877.34
2022-10-04T01:39:19.598Z,101878.47
2022-10-04T01:42:11.607Z,101879.97
2022-10-04T01:44:46.086Z,101876.53
2022-10-04T01:47:16.029Z,101877.88
2022-10-04T01:49:44.181Z,101877.53
2022-10-04T01:52:15.834Z,101871.69
2022-10-04T01:54:51.242Z,101869.41
2022-10-04T01:57:23.276Z,101862.63
2022-10-04T01:59:56.651Z,101870.66
2022-10-04T02:02:33.098Z,101859.63
2022-10-04T02:05:00.208Z,101860.56
2022-10-04T02:07:29.959Z,101869.16
2022-10-04T02:09:59.599Z,101851.06
2022-10-04T02:12:27.411Z,101858.44
2022-10-04T02:14:55.845Z,101835.31
2022-10-04T02:17:25.485Z,101846.81
2022-10-04T02:19:52.288Z,101840.56
2022-10-04T02:22:19.034Z,101832.72
2022-10-04T02:24:47.408Z,101834.59
2022-10-04T02:27:14.273Z,101823.16
2022-10-04T02:29:41.005Z,101822.16
2022-10-04T02:32:27.285Z,101816.41
2022-10-04T02:34:55.334Z,101818.22
2022-10-04T02:37:23.722Z,101812.31
2022-10-04T02:40:00.661Z,101813.03
2022-10-04T02:42:48.332Z,101807.78
2022-10-04T02:45:56.675Z,101814.00
2022-10-04T02:48:30.409Z,101815.75
2022-10-04T02:51:02.234Z,101813.16
2022-10-04T02:53:43.384Z,101808.69
2022-10-04T02:56:12.172Z,101815.75
2022-10-04T02:58:39.583Z,101814.03
2022-10-04T03:01:06.516Z,101815.59
2022-10-04T03:03:34.757Z,101813.16
2022-10-04T03:06:08.931Z,101803.00
2022-10-04T03:08:50.142Z,101799.69
2022-10-04T03:11:18.948Z,101806.84
2022-10-04T03:13:48.649Z,101813.09
2022-10-04T03:16:15.710Z,101806.34
2022-10-04T03:18:43.181Z,101803.91
2022-10-04T03:21:11.983Z,101803.09
2022-10-04T03:23:38.952Z,101804.34
2022-10-04T03:26:08.382Z,101802.31
2022-10-04T03:28:37.059Z,101792.03
2022-10-04T03:31:03.729Z,101794.56
2022-10-04T03:33:30.482Z,101795.03
2022-10-04T03:35:58.825Z,101799.16
2022-10-04T03:38:26.536Z,101797.78
2022-10-04T03:40:58.342Z,101799.06
2022-10-04T03:43:34.080Z,101799.78
2022-10-04T03:46:01.730Z,101800.47
2022-10-04T03:48:32.590Z,101805.13
2022-10-04T03:50:59.387Z,101799.91
2022-10-04T03:53:37.320Z,101807.00
2022-10-04T03:56:11.548Z,101797.28
2022-10-04T03:58:38.227Z,101796.44
2022-10-04T04:01:14.138Z,101800.75
2022-10-04T04:03:55.344Z,101804.31
2022-10-04T04:06:22.564Z,101803.56
2022-10-04T04:08:52.689Z,101814.94
2022-10-04T04:11:25.801Z,101799.06
2022-10-04T04:14:04.242Z,101796.31
2022-10-04T04:16:30.892Z,101800.03
2022-10-04T04:19:02.085Z,101791.41
2022-10-04T04:21:29.310Z,101786.09
2022-10-04T04:24:02.422Z,101788.69
2022-10-04T04:26:58.607Z,101780.91
2022-10-04T04:29:52.182Z,101766.53
2022-10-04T04:32:24.266Z,101767.66
2022-10-04T04:34:52.940Z,101771.06
2022-10-04T04:37:20.498Z,101778.88
2022-10-04T04:39:51.939Z,101783.41
2022-10-04T04:42:19.021Z,101781.03
2022-10-04T04:45:08.081Z,101785.38
2022-10-04T04:47:42.731Z,101779.06
2022-10-04T04:50:21.256Z,101779.94
2022-10-04T04:52:50.749Z,101782.56
2022-10-04T04:55:20.965Z,101781.66
2022-10-04T04:57:50.001Z,101777.91
2022-10-04T05:00:18.954Z,101780.50
2022-10-04T05:02:59.937Z,101782.16
2022-10-04T05:05:28.675Z,101769.88
2022-10-04T05:08:10.593Z,101783.16
2022-10-04T05:10:38.162Z,101777.06
2022-10-04T05:13:04.706Z,101781.28
2022-10-04T05:15:34.272Z,101774.53
2022-10-04T05:18:01.533Z,101780.63
2022-10-04T05:20:28.751Z,101785.78
2022-10-04T05:22:55.266Z,101786.50
2022-10-04T05:25:32.039Z,101780.25
2022-10-04T05:27:58.644Z,101775.84
2022-10-04T05:30:48.724Z,101770.03
2022-10-04T05:33:41.481Z,101773.50
2022-10-04T05:36:11.118Z,101765.84
2022-10-04T05:38:51.285Z,101772.56
2022-10-04T05:41:41.073Z,101769.06
2022-10-04T05:44:27.305Z,101761.41
2022-10-04T05:46:56.494Z,101767.03
2022-10-04T05:49:25.604Z,101769.16
2022-10-04T05:52:01.916Z,101772.50
2022-10-04T05:54:34.135Z,101770.78
2022-10-04T05:57:06.625Z,101766.25
2022-10-04T06:00:00.533Z,101764.59
2022-10-04T06:03:07.640Z,101765.56
2022-10-04T06:05:54.182Z,101758.94
2022-10-04T06:08:31.352Z,101756.88
2022-10-04T06:11:12.761Z,101757.78
2022-10-04T06:13:51.277Z,101752.41
2022-10-04T06:16:29.925Z,101761.84
2022-10-04T06:19:12.370Z,101749.75
2022-10-04T06:21:54.035Z,101759.19
2022-10-04T06:24:29.936Z,101758.16
2022-10-04T06:27:11.086Z,101755.75
2022-10-04T06:29:48.276Z,101758.47
2022-10-04T06:32:39.715Z,101764.91
2022-10-04T06:35:24.897Z,101759.25
2022-10-04T06:38:01.550Z,101761.94
2022-10-04T06:40:39.949Z,101753.34
2022-10-04T06:43:43.770Z,101764.81
2022-10-04T06:46:10.221Z,101775.41
2022-10-04T06:48:59.001Z,101769.50
2022-10-04T06:51:53.316Z,101773.44
2022-10-04T06:54:38.762Z,101777.38
2022-10-04T06:57:31.700Z,101779.13
2022-10-04T07:00:14.312Z,101772.00
2022-10-04T07:02:50.398Z,101772.13
2022-10-04T07:05:25.043Z,101770.75
2022-10-04T07:08:06.714Z,101774.34
2022-10-04T07:10:37.963Z,101769.88
2022-10-04T07:13:04.441Z,101781.19
2022-10-04T07:15:34.561Z,101774.69
2022-10-04T07:18:06.214Z,101773.97
2022-10-04T07:20:34.632Z,101776.72
2022-10-04T07:23:31.734Z,101763.03
2022-10-04T07:26:02.381Z,101771.78
2022-10-04T07:28:51.561Z,101779.78
2022-10-04T07:31:26.035Z,101767.66
2022-10-04T07:34:11.922Z,101769.84
2022-10-04T07:36:45.344Z,101768.47
2022-10-04T07:39:25.292Z,101780.59
2022-10-04T07:42:15.496Z,101777.13
2022-10-04T07:44:44.118Z,101782.03
2022-10-04T07:47:20.484Z,101782.63
2022-10-04T07:49:50.775Z,101782.59
2022-10-04T07:52:27.734Z,101783.38
2022-10-04T07:55:13.353Z,101786.16
2022-10-04T07:58:09.599Z,101789.81
2022-10-04T08:01:24.345Z,101787.38
2022-10-04T08:03:50.774Z,101782.84
2022-10-04T08:06:36.614Z,101781.41
2022-10-04T08:09:25.735Z,101779.78
2022-10-04T08:12:19.117Z,101778.94
2022-10-04T08:15:10.792Z,101785.81
2022-10-04T08:18:05.894Z,101791.66
2022-10-04T08:20:41.485Z,101788.19
2022-10-04T08:23:20.757Z,101780.31
2022-10-04T08:26:22.463Z,101786.59
2022-10-04T08:29:22.781Z,101787.69
2022-10-04T08:32:18.159Z,101774.56
2022-10-04T08:35:06.022Z,101775.66
2022-10-04T08:37:46.192Z,101773.91
2022-10-04T08:40:34.359Z,101772.28
2022-10-04T08:43:13.160Z,101768.75
2022-10-04T08:45:54.141Z,101767.78
2022-10-04T08:48:46.391Z,101770.06
2022-10-04T08:51:44.559Z,101771.34
2022-10-04T08:54:48.759Z,101767.63
2022-10-04T08:57:21.285Z,101759.22
2022-10-04T09:00:06.307Z,101763.47
2022-10-04T09:02:51.042Z,101767.13
2022-10-04T09:05:40.791Z,101776.13
2022-10-04T09:08:12.778Z,101768.34
2022-10-04T09:10:51.393Z,101759.56
2022-10-04T09:14:12.392Z,101763.25
2022-10-04T09:16:44.860Z,101759.63
2022-10-04T09:19:47.321Z,101759.38
2022-10-04T09:22:17.528Z,101750.81
2022-10-04T09:25:09.207Z,101759.69
2022-10-04T09:27:58.491Z,101757.84
2022-10-04T09:30:53.896Z,101761.59
2022-10-04T09:33:39.284Z,101765.28
2022-10-04T09:36:17.324Z,101768.44
2022-10-04T09:39:11.767Z,101768.53
2022-10-04T09:42:16.760Z,101771.25
2022-10-04T09:44:55.756Z,101776.69
2022-10-04T09:47:43.838Z,101773.94
2022-10-04T09:50:26.382Z,101763.22
2022-10-04T09:53:17.916Z,101752.91
2022-10-04T09:55:55.396Z,101747.00
2022-10-04T09:58:34.073Z,101747.09
2022-10-04T10:01:12.947Z,101745.28
2022-10-04T10:04:18.009Z,101749.75
2022-10-04T10:07:02.842Z,101745.28
2022-10-04T10:09:59.129Z,101745.19
2022-10-04T10:13:21.657Z,101745.22
2022-10-04T10:15:59.531Z,101740.81
2022-10-04T10:18:46.500Z,101724.84
2022-10-04T10:21:21.989Z,101714.34
2022-10-04T10:24:26.181Z,101717.75
2022-10-04T10:27:15.790Z,101714.53
2022-10-04T10:29:59.402Z,101719.69
2022-10-04T10:32:28.906Z,101713.66
2022-10-04T10:34:56.132Z,101715.16
2022-10-04T10:37:33.401Z,101714.94
2022-10-04T10:40:24.118Z,101719.69
2022-10-04T10:43:00.177Z,101728.03
2022-10-04T10:45:29.719Z,101720.34
2022-10-04T10:48:14.338Z,101729.69
2022-10-04T10:51:01.335Z,101725.25
2022-10-04T10:53:48.123Z,101727.91
2022-10-04T10:56:36.377Z,101725.31
2022-10-04T10:59:37.404Z,101721.53
2022-10-04T11:02:49.727Z,101725.94
2022-10-04T11:05:32.163Z,101720.16
2022-10-04T11:08:29.964Z,101714.38
2022-10-04T11:11:30.348Z,101709.31
2022-10-04T11:13:59.775Z,101706.38
2022-10-04T11:16:56.806Z,101697.56
2022-10-04T11:19:54.278Z,101694.53
2022-10-04T11:22:44.543Z,101679.84
2022-10-04T11:25:39.811Z,101678.31
2022-10-04T11:28:06.348Z,101689.25
2022-10-04T11:30:51.412Z,101682.91
2022-10-04T11:33:55.741Z,101689.88
2022-10-04T11:36:37.253Z,101689.91
2022-10-04T11:39:23.838Z,101681.31
2022-10-04T11:41:57.242Z,101681.69
2022-10-04T11:44:29.423Z,101680.19
2022-10-04T11:47:28.672Z,101683.19
2022-10-04T11:50:20.462Z,101667.06
2022-10-04T11:53:08.504Z,101657.31
2022-10-04T11:56:04.336Z,101663.53
2022-10-04T11:58:58.351Z,101656.22
2022-10-04T12:01:38.763Z,101651.50
2022-10-04T12:04:35.273Z,101653.47
2022-10-04T12:07:26.798Z,101653.81
2022-10-04T12:10:11.956Z,101650.34
2022-10-04T12:12:53.709Z,101645.97
2022-10-04T12:15:39.018Z,101636.16
2022-10-04T12:18:19.789Z,101636.34
2022-10-04T12:21:16.948Z,101638.16
2022-10-04T12:23:59.083Z,101639.19
2022-10-04T12:26:56.492Z,101629.44
2022-10-04T12:29:56.917Z,101621.56
2022-10-04T12:32:28.738Z,101623.47
2022-10-04T12:35:20.282Z,101621.72
2022-10-04T12:38:13.707Z,101612.38
2022-10-04T12:40:42.918Z,101609.97
2022-10-04T12:43:30.879Z,101621.25
2022-10-04T12:46:10.132Z,101625.41
2022-10-04T12:49:18.749Z,101620.66
2022-10-04T12:52:06.958Z,101616.47
2022-10-04T12:54:42.750Z,101620.25
2022-10-04T12:57:09.144Z,101615.66
2022-10-04T12:59:38.606Z,101623.72
2022-10-04T13:02:14.438Z,101619.59
2022-10-04T13:04:54.631Z,101633.56
2022-10-04T13:07:51.812Z,101627.50
2022-10-04T13:10:30.278Z,101622.47
2022-10-04T13:13:11.769Z,101608.47
2022-10-04T13:18:40.011Z,101590.53
2022-10-04T13:21:15.070Z,101588.41
2022-10-04T13:24:09.704Z,101586.78
2022-10-04T13:26:57.314Z,101581.31
2022-10-04T13:29:36.731Z,101571.88
2022-10-04T13:32:13.433Z,101572.31
2022-10-04T13:34:52.569Z,101567.03
2022-10-04T13:37:31.152Z,101554.00
2022-10-04T13:40:21.362Z,101549.81
2022-10-04T13:43:21.710Z,101545.53
2022-10-04T13:46:25.488Z,101554.13
2022-10-04T13:49:07.711Z,101559.34
2022-10-04T13:51:44.110Z,101550.53
2022-10-04T13:54:33.063Z,101539.00
2022-10-04T13:57:18.843Z,101547.28
2022-10-04T13:59:49.113Z,101543.66
2022-10-04T14:02:30.607Z,101530.00
2022-10-04T14:05:32.324Z,101527.81
2022-10-04T14:08:37.605Z,101524.00
2022-10-04T14:11:21.457Z,101516.50
2022-10-04T14:14:21.548Z,101511.72
2022-10-04T14:17:15.321Z,101505.97
2022-10-04T14:19:59.274Z,101501.81
2022-10-04T14:22:47.249Z,101513.59
2022-10-04T14:25:46.139Z,101509.78
2022-10-04T14:28:42.709Z,101510.63
2022-10-04T14:31:37.393Z,101514.53
2022-10-04T14:34:30.317Z,101522.78
2022-10-04T14:37:11.103Z,101519.47
2022-10-04T14:39:59.460Z,101529.94
2022-10-04T14:42:36.889Z,101517.63
2022-10-04T14:45:13.362Z,101514.19
2022-10-04T14:48:13.285Z,101518.28
2022-10-04T14:51:19.635Z,101518.81
2022-10-04T14:54:00.870Z,101515.63
2022-10-04T14:56:36.389Z,101518.53
2022-10-04T14:59:14.845Z,101518.06
2022-10-04T15:02:09.274Z,101511.22
2022-10-04T15:04:54.457Z,101510.25
2022-10-04T15:07:24.515Z,101509.50
2022-10-04T15:10:11.850Z,101513.50
2022-10-04T15:13:10.063Z,101518.25
2022-10-04T15:15:40.644Z,101520.03
2022-10-04T15:18:22.236Z,101519.88
2022-10-04T15:20:54.878Z,101522.28
2022-10-04T15:23:56.852Z,101520.66
2022-10-04T15:26:23.280Z,101507.53
2022-10-04T15:28:49.668Z,101504.22
2022-10-04T15:31:36.163Z,101499.38
2022-10-04T15:34:12.526Z,101493.63
2022-10-04T15:36:45.769Z,101475.22
2022-10-04T15:39:40.187Z,101478.56
2022-10-04T15:42:14.086Z,101471.47
2022-10-04T15:44:55.986Z,101466.66
2022-10-04T15:47:30.993Z,101460.34
2022-10-04T15:50:17.312Z,101445.38
2022-10-04T15:53:08.675Z,101456.84
2022-10-04T15:55:35.078Z,101457.84
2022-10-04T15:58:26.516Z,101457.66
2022-10-04T16:01:12.951Z,101455.94
2022-10-04T16:04:11.788Z,101454.22
2022-10-04T16:06:49.035Z,101451.66
2022-10-04T16:09:39.140Z,101454.41
2022-10-04T16:12:08.366Z,101451.59
2022-10-04T16:15:09.788Z,101453.53
2022-10-04T16:18:10.043Z,101463.22
2022-10-04T16:20:53.520Z,101467.53
2022-10-04T16:23:27.951Z,101456.97
2022-10-04T16:26:00.406Z,101461.47
2022-10-04T16:28:35.437Z,101462.44
2022-10-04T16:31:24.994Z,101457.03
2022-10-04T16:33:56.617Z,101449.00
2022-10-04T16:36:27.019Z,101448.41
2022-10-04T16:39:25.340Z,101448.94
2022-10-04T16:42:05.853Z,101447.47
2022-10-04T16:44:46.048Z,101441.25
2022-10-04T16:47:22.778Z,101439.56
2022-10-04T16:49:54.991Z,101434.31
2022-10-04T16:52:27.511Z,101428.28
2022-10-04T16:55:03.413Z,101436.22
2022-10-04T16:57:30.087Z,101431.03
2022-10-04T17:00:00.625Z,101417.84
2022-10-04T17:02:40.560Z,101416.97
2022-10-04T17:05:47.305Z,101418.69
2022-10-04T17:08:16.923Z,101424.91
2022-10-04T17:11:07.331Z,101428.47
2022-10-04T17:13:57.600Z,101441.63
2022-10-04T17:16:48.235Z,101439.03
2022-10-04T17:19:33.980Z,101439.03
2022-10-04T17:22:22.435Z,101435.47
2022-10-04T17:25:01.410Z,101442.47
2022-10-04T17:28:19.529Z,101451.28
2022-10-04T17:31:02.964Z,101454.84
2022-10-04T17:33:44.657Z,101446.91
2022-10-04T17:36:20.245Z,101440.75
2022-10-04T17:39:16.378Z,101435.47
2022-10-04T17:41:42.803Z,101440.72
2022-10-04T17:44:45.728Z,101438.13
2022-10-04T17:47:55.209Z,101440.75
2022-10-04T17:50:47.224Z,101448.69
2022-10-04T17:53:40.000Z,101441.63
2022-10-04T17:56:07.270Z,101447.81
2022-10-04T17:58:46.171Z,101461.81
2022-10-04T18:01:55.681Z,101460.03
2022-10-04T18:04:30.513Z,101471.50
2022-10-04T18:07:10.346Z,101463.56
2022-10-04T18:09:39.842Z,101465.38
2022-10-04T18:12:24.931Z,101457.44
2022-10-04T18:14:57.452Z,101431.16
2022-10-04T18:17:35.913Z,101427.69
2022-10-04T18:20:30.552Z,101425.91
2022-10-04T18:23:13.960Z,101414.53
2022-10-04T18:25:41.332Z,101425.88
2022-10-04T18:28:07.857Z,101414.47
2022-10-04T18:30:51.544Z,101407.50
2022-10-04T18:33:26.699Z,101396.09
2022-10-04T18:36:05.236Z,101399.59
2022-10-04T18:38:34.435Z,101400.47
2022-10-04T18:41:04.580Z,101403.97
2022-10-04T18:43:33.912Z,101409.25
2022-10-04T18:46:14.650Z,101403.97
2022-10-04T18:48:54.286Z,101408.38
2022-10-04T18:51:29.412Z,101423.25
2022-10-04T18:54:12.134Z,101438.16
2022-10-04T18:57:27.185Z,101446.03
2022-10-04T19:00:29.828Z,101453.06
2022-10-04T19:03:11.623Z,101465.34
2022-10-04T19:06:02.773Z,101463.56
2022-10-04T19:08:48.039Z,101466.16
2022-10-04T19:11:23.225Z,101467.06
2022-10-04T19:13:55.314Z,101458.28
2022-10-04T19:16:36.090Z,101449.50
2022-10-04T19:19:17.756Z,101441.63
2022-10-04T19:22:01.298Z,101433.78
2022-10-04T19:24:55.512Z,101424.09
2022-10-04T19:27:45.320Z,101421.47
2022-10-04T19:30:14.798Z,101417.09
2022-10-04T19:32:59.814Z,101436.34
2022-10-04T19:35:49.393Z,101426.72
2022-10-04T19:38:52.478Z,101440.75
2022-10-04T19:41:31.245Z,101441.63
2022-10-04T19:44:13.357Z,101446.91
2022-10-04T19:47:17.286Z,101448.59
2022-10-04T19:49:57.937Z,101445.97
2022-10-04T19:52:44.760Z,101440.75
2022-10-04T19:55:29.740Z,101432.84
2022-10-04T19:58:04.896Z,101428.44
2022-10-04T20:00:33.090Z,101414.47
2022-10-04T20:02:59.562Z,101420.56
2022-10-04T20:05:26.658Z,101421.44
2022-10-04T20:08:01.462Z,101425.84
2022-10-04T20:10:37.882Z,101421.50
2022-10-04T20:13:10.741Z,101424.06
2022-10-04T20:15:37.798Z,101425.88
2022-10-04T20:18:33.882Z,101438.13
2022-10-04T20:21:01.463Z,101427.63
2022-10-04T20:23:40.216Z,101425.00
2022-10-04T20:26:11.522Z,101423.22
2022-10-04T20:28:41.758Z,101410.94
2022-10-04T20:31:10.463Z,101395.19
2022-10-04T20:33:39.010Z,101409.19
2022-10-04T20:36:14.342Z,101410.97
2022-10-04T20:39:01.084Z,101423.22
2022-10-04T20:41:53.826Z,101405.72
2022-10-04T20:44:43.009Z,101412.75
2022-10-04T20:47:21.693Z,101406.59
2022-10-04T20:49:49.437Z,101397.84
2022-10-04T20:52:16.405Z,101396.94
2022-10-04T20:54:52.310Z,101393.44
2022-10-04T20:57:24.776Z,101373.28
2022-10-04T20:59:55.318Z,101368.91
2022-10-04T21:02:24.192Z,101363.66
2022-10-04T21:04:53.567Z,101368.03
2022-10-04T21:07:25.234Z,101377.66
2022-10-04T21:09:53.292Z,101386.44
2022-10-04T21:12:35.394Z,101401.34
2022-10-04T21:15:22.777Z,101410.97
2022-10-04T21:18:04.168Z,101405.72
2022-10-04T21:20:49.445Z,101393.44
2022-10-04T21:23:23.446Z,101393.47
2022-10-04T21:25:50.429Z,101383.81
2022-10-04T21:28:34.153Z,101393.44
2022-10-04T21:31:01.593Z,101403.94
2022-10-04T21:33:28.062Z,101406.59
2022-10-04T21:35:54.529Z,101406.56
2022-10-04T21:38:21.035Z,101391.69
2022-10-04T21:40:47.517Z,101397.84
2022-10-04T21:43:14.081Z,101380.31
2022-10-04T21:45:40.592Z,101376.81
2022-10-04T21:48:07.182Z,101382.03
2022-10-04T21:50:33.655Z,101377.69
2022-10-04T21:53:00.196Z,101377.66
2022-10-04T21:55:26.648Z,101388.19
2022-10-04T21:57:53.145Z,101387.31
2022-10-04T22:00:19.584Z,101385.53
2022-10-04T22:02:46.147Z,101377.66
2022-10-04T22:05:12.966Z,101379.41
2022-10-04T22:07:39.472Z,101371.53
2022-10-04T22:10:06.114Z,101367.16
2022-10-04T22:12:32.605Z,101367.16
2022-10-04T22:14:59.050Z,101367.16
2022-10-04T22:17:25.542Z,101356.66
2022-10-04T22:19:53.023Z,101357.53
2022-10-04T22:22:19.526Z,101355.78
2022-10-04T22:24:45.972Z,101341.75
2022-10-04T22:27:17.545Z,101343.47
2022-10-04T22:29:44.520Z,101337.34
2022-10-04T22:32:18.196Z,101336.50
2022-10-04T22:34:44.726Z,101325.06
2022-10-04T22:37:11.898Z,101329.47
2022-10-04T22:39:38.882Z,101324.22
2022-10-04T22:42:05.500Z,101323.38
2022-10-04T22:44:37.319Z,101321.59
2022-10-04T22:47:15.460Z,101321.59
2022-10-04T22:49:43.954Z,101316.34
2022-10-04T22:52:17.489Z,101324.22
2022-10-04T22:54:51.401Z,101318.09
2022-10-04T22:57:26.237Z,101318.06
2022-10-04T23:16:15.915Z,101320.72
2022-10-04T23:42:47.300Z,101313.72
2022-10-04T23:59:44.504Z,101297.09
